CheckWX is a tool to help pilots better visualize weather data.  It is not intended as a substitute for an official pre-flight weather briefing.

00:26:33 UTC

LEBA METAR
Córdoba Airport
Córdoba, Spain
Current

27 mins ago

LEBA 080000Z AUTO VRB01KT CAVOK 28/13 Q1012
Observed
Jul-8 @ 00:00 UTC
Wind
  • Variable at 1 KTS
Visibility
10,000+ meters
Flight Rules
VFR
Cloud Levels
  • Clear skies
Temperature
28°C / 82°F
Dewpoint
13°C / 55°F
Humidity
40%
Altimeter
29.88" Hg
Pressure
1011.92 hPa
Previous

57 mins ago

LEBA 072330Z AUTO 02005KT 350V050 CAVOK 29/13 Q1012
Observed
Jul-7 @ 23:30 UTC
Wind
  • 020° at 5 KTS
Visibility
10,000+ meters
Flight Rules
VFR
Cloud Levels
  • Clear skies
Temperature
29°C / 84°F
Dewpoint
13°C / 55°F
Humidity
37%
Altimeter
29.88" Hg
Pressure
1011.92 hPa
Previous

1 hour ago

LEBA 072300Z AUTO 26001KT CAVOK 29/14 Q1012
Observed
Jul-7 @ 23:00 UTC
Wind
  • 260° at 1 KTS
Visibility
10,000+ meters
Flight Rules
VFR
Cloud Levels
  • Clear skies
Temperature
29°C / 84°F
Dewpoint
14°C / 57°F
Humidity
40%
Altimeter
29.88" Hg
Pressure
1011.92 hPa